createdAt,value
2019-03-15T00:02:14.538Z,6.99
2019-03-15T00:04:41.610Z,7.02
2019-03-15T00:07:08.678Z,7.08
2019-03-15T00:09:35.737Z,7.08
2019-03-15T00:12:02.826Z,7.08
2019-03-15T00:14:29.942Z,7.12
2019-03-15T00:16:56.997Z,7.12
2019-03-15T00:19:24.045Z,7.14
2019-03-15T00:21:51.160Z,7.12
2019-03-15T00:24:19.217Z,7.15
2019-03-15T00:26:46.455Z,7.17
2019-03-15T00:29:13.546Z,7.19
2019-03-15T00:31:40.601Z,7.19
2019-03-15T00:34:07.669Z,7.24
2019-03-15T00:36:34.746Z,7.22
2019-03-15T00:39:09.194Z,7.24
2019-03-15T00:41:37.663Z,7.26
2019-03-15T00:44:04.698Z,7.30
2019-03-15T00:46:31.746Z,7.31
2019-03-15T00:48:58.839Z,7.30
2019-03-15T00:51:25.916Z,7.32
2019-03-15T00:53:54.450Z,7.32
2019-03-15T00:56:21.860Z,7.33
2019-03-15T00:58:48.960Z,7.29
2019-03-15T01:01:16.155Z,7.28
2019-03-15T01:03:43.216Z,7.21
2019-03-15T01:06:10.359Z,7.18
2019-03-15T01:08:37.423Z,7.21
2019-03-15T01:11:05.667Z,7.25
2019-03-15T01:13:32.759Z,7.24
2019-03-15T01:15:59.807Z,7.16
2019-03-15T01:18:26.863Z,7.16
2019-03-15T01:20:54.013Z,7.20
2019-03-15T01:23:21.041Z,7.23
2019-03-15T01:25:48.086Z,7.19
2019-03-15T01:28:16.246Z,7.18
2019-03-15T01:30:43.401Z,7.17
2019-03-15T01:33:10.456Z,7.25
2019-03-15T01:35:37.532Z,7.28
2019-03-15T01:38:04.585Z,7.34
2019-03-15T01:40:31.636Z,7.36
2019-03-15T01:42:58.720Z,7.34
2019-03-15T01:45:25.809Z,7.29
2019-03-15T01:47:52.845Z,7.25
2019-03-15T01:50:20.026Z,7.17
2019-03-15T01:52:47.101Z,7.12
2019-03-15T01:55:14.143Z,7.14
2019-03-15T01:57:41.329Z,7.12
2019-03-15T02:00:09.237Z,7.12
2019-03-15T02:02:36.594Z,7.10
2019-03-15T02:05:04.292Z,7.03
2019-03-15T02:07:33.138Z,7.00
2019-03-15T02:10:00.296Z,7.00
2019-03-15T02:12:27.396Z,7.01
2019-03-15T02:14:54.442Z,7.04
2019-03-15T02:17:21.487Z,6.98
2019-03-15T02:19:48.575Z,6.95
2019-03-15T02:22:15.626Z,6.96
2019-03-15T02:24:42.659Z,6.97
2019-03-15T02:27:09.752Z,6.92
2019-03-15T02:29:36.802Z,6.94
2019-03-15T02:32:03.837Z,6.96
2019-03-15T02:34:30.920Z,6.98
2019-03-15T02:36:58.015Z,6.99
2019-03-15T02:39:25.227Z,6.97
2019-03-15T02:41:52.460Z,6.94
2019-03-15T02:44:20.678Z,6.93
2019-03-15T02:46:47.730Z,6.91
2019-03-15T02:49:14.824Z,6.92
2019-03-15T02:51:41.866Z,6.89
2019-03-15T02:54:08.939Z,6.92
2019-03-15T02:56:36.260Z,6.91
2019-03-15T02:59:03.369Z,6.91
2019-03-15T03:01:30.437Z,6.89
2019-03-15T03:03:57.519Z,6.88
2019-03-15T03:06:24.565Z,6.86
2019-03-15T03:08:51.601Z,6.85
2019-03-15T03:11:18.693Z,6.83
2019-03-15T03:13:45.734Z,6.83
2019-03-15T03:16:12.786Z,6.87
2019-03-15T03:18:39.849Z,6.90
2019-03-15T03:21:06.906Z,6.94
2019-03-15T03:23:34.009Z,6.94
2019-03-15T03:26:01.114Z,6.91
2019-03-15T03:28:30.174Z,6.92
2019-03-15T03:30:57.344Z,6.94
2019-03-15T03:33:24.454Z,6.92
2019-03-15T03:36:10.052Z,6.95
2019-03-15T03:38:37.252Z,6.95
2019-03-15T03:41:04.807Z,6.96
2019-03-15T03:43:31.920Z,6.98
2019-03-15T03:45:58.970Z,6.97
2019-03-15T03:48:26.066Z,6.99
2019-03-15T03:50:53.126Z,7.01
2019-03-15T03:53:20.212Z,7.00
2019-03-15T03:55:47.251Z,7.05
2019-03-15T03:58:14.293Z,7.09
2019-03-15T04:00:41.382Z,7.10
2019-03-15T04:03:09.541Z,7.13
2019-03-15T04:05:36.581Z,7.11
2019-03-15T04:08:04.027Z,7.09
2019-03-15T04:10:31.084Z,7.10
2019-03-15T04:12:58.093Z,7.08
2019-03-15T04:15:25.181Z,7.11
2019-03-15T04:17:52.220Z,7.17
2019-03-15T04:20:19.253Z,7.19
2019-03-15T04:23:38.073Z,7.20
2019-03-15T04:26:04.501Z,7.23
2019-03-15T04:28:51.141Z,7.18
2019-03-15T04:31:18.220Z,7.15
2019-03-15T04:33:46.635Z,7.18
2019-03-15T04:36:13.662Z,7.20
2019-03-15T04:38:40.754Z,7.20
2019-03-15T04:41:07.842Z,7.19
2019-03-15T04:43:34.965Z,7.22
2019-03-15T04:46:02.014Z,7.23
2019-03-15T04:48:35.203Z,7.23
2019-03-15T04:51:02.233Z,7.21
2019-03-15T04:53:29.279Z,7.23
2019-03-15T04:55:56.351Z,7.23
2019-03-15T04:58:23.396Z,7.21
2019-03-15T05:00:50.498Z,7.22
2019-03-15T05:03:17.560Z,7.23
2019-03-15T05:05:44.621Z,7.23
2019-03-15T05:08:11.667Z,7.22
2019-03-15T05:10:38.732Z,7.20
2019-03-15T05:13:05.802Z,7.23
2019-03-15T05:15:32.837Z,7.21
2019-03-15T05:17:59.922Z,7.19
2019-03-15T05:20:27.016Z,7.15
2019-03-15T05:22:54.458Z,7.16
2019-03-15T05:25:21.541Z,7.15
2019-03-15T05:27:48.592Z,7.16
2019-03-15T05:30:15.634Z,7.16
2019-03-15T05:32:42.706Z,7.17
2019-03-15T05:35:09.750Z,7.15
2019-03-15T05:37:36.800Z,7.14
2019-03-15T05:40:04.887Z,7.13
2019-03-15T05:42:31.931Z,7.13
2019-03-15T05:44:59.048Z,7.15
2019-03-15T05:47:30.334Z,7.16
2019-03-15T05:49:57.481Z,7.13
2019-03-15T05:52:24.545Z,7.12
2019-03-15T05:54:51.625Z,7.08
2019-03-15T05:57:18.685Z,7.08
2019-03-15T05:59:45.754Z,7.08
2019-03-15T06:02:12.880Z,7.11
2019-03-15T06:04:39.934Z,7.09
2019-03-15T06:07:06.967Z,7.06
2019-03-15T06:09:34.046Z,7.10
2019-03-15T06:12:01.093Z,7.10
2019-03-15T06:14:28.150Z,7.11
2019-03-15T06:16:57.355Z,7.12
2019-03-15T06:19:42.813Z,7.11
2019-03-15T06:22:09.954Z,7.07
2019-03-15T06:24:37.003Z,7.05
2019-03-15T06:27:04.236Z,7.06
2019-03-15T06:29:31.293Z,7.08
2019-03-15T06:31:58.359Z,7.08
2019-03-15T06:34:25.476Z,7.07
2019-03-15T06:36:52.561Z,7.04
2019-03-15T06:39:19.649Z,7.04
2019-03-15T06:42:06.014Z,7.05
2019-03-15T06:44:33.063Z,7.05
2019-03-15T06:47:00.941Z,7.04
2019-03-15T06:49:28.220Z,7.04
2019-03-15T06:51:55.268Z,7.04
2019-03-15T06:54:22.513Z,7.06
2019-03-15T06:56:49.876Z,7.09
2019-03-15T06:59:16.952Z,7.09
2019-03-15T07:01:44.036Z,7.11
2019-03-15T07:04:11.135Z,7.12
2019-03-15T07:06:38.208Z,7.13
2019-03-15T07:09:06.906Z,7.16
2019-03-15T07:11:34.531Z,7.19
2019-03-15T07:14:01.695Z,7.20
2019-03-15T07:16:28.770Z,7.23
2019-03-15T07:18:55.899Z,7.28
2019-03-15T07:21:22.989Z,7.30
2019-03-15T07:23:50.039Z,7.32
2019-03-15T07:26:17.156Z,7.35
2019-03-15T07:28:44.254Z,7.37
2019-03-15T07:31:17.087Z,7.41
2019-03-15T07:33:44.180Z,7.45
2019-03-15T07:36:11.276Z,7.46
2019-03-15T07:38:38.336Z,7.50
2019-03-15T07:41:05.419Z,7.54
2019-03-15T07:43:32.500Z,7.58
2019-03-15T07:45:59.566Z,7.63
2019-03-15T07:48:26.998Z,7.68
2019-03-15T07:50:54.188Z,7.72
2019-03-15T07:53:21.310Z,7.77
2019-03-15T07:55:48.361Z,7.81
2019-03-15T07:58:15.429Z,7.88
2019-03-15T08:00:42.529Z,7.94
2019-03-15T08:03:09.682Z,7.98
2019-03-15T08:05:36.735Z,8.03
2019-03-15T08:08:03.857Z,8.08
2019-03-15T08:10:30.905Z,8.14
2019-03-15T08:12:57.968Z,8.17
2019-03-15T08:15:25.051Z,8.27
2019-03-15T08:17:52.114Z,8.30
2019-03-15T08:20:19.305Z,8.34
2019-03-15T08:22:46.480Z,8.42
2019-03-15T08:25:13.564Z,8.43
2019-03-15T08:27:40.626Z,8.46
2019-03-15T08:30:09.969Z,8.54
2019-03-15T08:32:37.041Z,8.58
2019-03-15T08:35:05.089Z,8.65
2019-03-15T08:37:32.183Z,8.72
2019-03-15T08:39:59.254Z,8.82
2019-03-15T08:42:26.297Z,8.93
2019-03-15T08:44:53.488Z,8.99
2019-03-15T08:47:21.876Z,9.09
2019-03-15T08:49:49.372Z,9.18
2019-03-15T08:52:16.502Z,9.25
2019-03-15T08:54:46.461Z,9.30
2019-03-15T08:57:12.656Z,9.40
2019-03-15T08:59:53.842Z,9.47
2019-03-15T09:02:08.979Z,9.53
2019-03-15T09:04:36.005Z,9.63
2019-03-15T09:07:03.206Z,9.73
2019-03-15T09:12:55.298Z,9.85
2019-03-15T09:15:22.455Z,9.98
2019-03-15T09:17:49.525Z,9.98
2019-03-15T09:20:16.711Z,10.07
2019-03-15T09:22:43.880Z,10.10
2019-03-15T09:25:19.139Z,10.12
2019-03-15T09:27:45.253Z,10.20
2019-03-15T09:30:22.578Z,10.32
2019-03-15T09:32:40.539Z,10.34
2019-03-15T09:35:07.755Z,10.46
2019-03-15T09:37:34.828Z,10.51
2019-03-15T09:40:01.934Z,10.54
2019-03-15T09:42:29.044Z,10.58
2019-03-15T09:44:56.111Z,10.59
2019-03-15T09:47:23.208Z,10.64
2019-03-15T09:49:50.340Z,10.76
2019-03-15T09:52:17.397Z,10.79
2019-03-15T09:54:44.480Z,10.88
2019-03-15T09:57:11.734Z,10.96
2019-03-15T09:59:38.800Z,11.01
2019-03-15T10:02:07.819Z,11.05
2019-03-15T10:04:36.164Z,11.06
2019-03-15T10:07:03.367Z,11.10
2019-03-15T10:09:46.041Z,11.13
2019-03-15T10:12:31.018Z,11.19
2019-03-15T10:14:58.967Z,11.21
2019-03-15T10:17:40.565Z,11.21
2019-03-15T10:20:26.051Z,11.28
2019-03-15T10:23:11.303Z,11.30
2019-03-15T10:25:46.711Z,11.34
2019-03-15T10:28:08.361Z,11.41
2019-03-15T10:30:37.416Z,11.44
2019-03-15T10:33:06.577Z,11.49
2019-03-15T10:35:34.823Z,11.61
2019-03-15T10:38:03.523Z,11.65
2019-03-15T10:40:31.145Z,11.69
2019-03-15T10:43:25.621Z,11.70
2019-03-15T10:45:53.299Z,11.72
2019-03-15T10:48:25.567Z,11.77
2019-03-15T10:50:50.546Z,11.75
2019-03-15T10:53:17.765Z,11.80
2019-03-15T10:55:59.171Z,11.81
2019-03-15T10:58:15.943Z,11.90
2019-03-15T11:00:43.031Z,11.95
2019-03-15T11:03:12.953Z,11.96
2019-03-15T11:05:39.148Z,12.02
2019-03-15T11:08:06.339Z,11.96
2019-03-15T11:10:33.407Z,12.07
2019-03-15T11:13:00.466Z,12.21
2019-03-15T11:15:27.570Z,12.18
2019-03-15T11:17:54.702Z,12.16
2019-03-15T11:20:21.772Z,12.14
2019-03-15T11:22:48.844Z,12.13
2019-03-15T11:25:15.972Z,12.24
2019-03-15T11:27:43.102Z,12.31
2019-03-15T11:30:10.212Z,12.44
2019-03-15T11:32:37.448Z,12.49
2019-03-15T11:35:05.520Z,12.49
2019-03-15T11:37:32.683Z,12.55
2019-03-15T11:39:59.986Z,12.58
2019-03-15T11:42:27.055Z,12.65
2019-03-15T11:44:54.126Z,12.63
2019-03-15T11:47:21.382Z,12.67
2019-03-15T11:49:48.461Z,12.69
2019-03-15T11:52:15.564Z,12.76
2019-03-15T11:54:42.706Z,12.82
2019-03-15T11:57:11.192Z,12.84
2019-03-15T11:59:38.258Z,12.89
2019-03-15T12:02:05.400Z,12.83
2019-03-15T12:04:35.386Z,12.75
2019-03-15T12:07:02.464Z,12.77
2019-03-15T12:09:29.588Z,12.79
2019-03-15T12:11:56.658Z,12.82
2019-03-15T12:14:23.718Z,12.90
2019-03-15T12:16:50.832Z,13.03
2019-03-15T12:19:17.904Z,13.15
2019-03-15T12:21:44.954Z,13.20
2019-03-15T12:24:12.036Z,13.20
2019-03-15T12:26:40.470Z,13.15
2019-03-15T12:29:09.004Z,13.13
2019-03-15T12:31:36.221Z,13.26
2019-03-15T12:34:03.379Z,13.25
2019-03-15T12:36:30.454Z,13.28
2019-03-15T12:38:58.494Z,13.32
2019-03-15T12:41:25.767Z,13.43
2019-03-15T12:43:52.815Z,13.51
2019-03-15T12:46:19.917Z,13.51
2019-03-15T12:48:46.988Z,13.54
2019-03-15T12:51:14.044Z,13.45
2019-03-15T12:53:41.464Z,13.41
2019-03-15T12:56:11.061Z,13.34
2019-03-15T12:58:37.481Z,13.32
2019-03-15T13:01:04.751Z,13.20
2019-03-15T13:03:31.973Z,13.11
2019-03-15T13:05:59.073Z,13.19
2019-03-15T13:08:26.173Z,13.21
2019-03-15T13:10:53.241Z,13.24
2019-03-15T13:13:20.403Z,13.21
2019-03-15T13:15:47.592Z,13.17
2019-03-15T13:18:14.718Z,13.23
2019-03-15T13:20:41.835Z,13.12
2019-03-15T13:23:08.979Z,13.09
2019-03-15T13:25:36.043Z,13.00
2019-03-15T13:28:03.111Z,12.96
2019-03-15T13:30:30.228Z,12.93
2019-03-15T13:32:57.499Z,12.96
2019-03-15T13:35:24.553Z,12.99
2019-03-15T13:37:51.646Z,13.05
2019-03-15T13:40:18.836Z,12.99
2019-03-15T13:42:45.961Z,13.04
2019-03-15T13:45:13.163Z,13.02
2019-03-15T13:47:40.239Z,13.11
2019-03-15T13:50:08.726Z,13.17
2019-03-15T13:52:36.726Z,13.25
2019-03-15T13:55:04.172Z,13.19
2019-03-15T13:57:31.245Z,13.22
2019-03-15T13:59:58.361Z,13.21
2019-03-15T14:02:25.472Z,13.23
2019-03-15T14:04:52.592Z,13.17
2019-03-15T14:07:20.077Z,13.22
2019-03-15T14:09:47.467Z,13.06
2019-03-15T14:12:14.562Z,13.08
2019-03-15T14:14:41.664Z,13.19
2019-03-15T14:17:08.723Z,13.12
2019-03-15T14:19:35.955Z,13.08
2019-03-15T14:22:06.027Z,13.16
2019-03-15T14:24:33.432Z,13.19
2019-03-15T14:27:00.512Z,13.19
2019-03-15T14:29:27.642Z,13.17
2019-03-15T14:31:54.685Z,13.17
2019-03-15T14:34:21.832Z,13.07
2019-03-15T14:36:53.200Z,13.14
2019-03-15T14:39:21.725Z,13.11
2019-03-15T14:41:48.846Z,13.16
2019-03-15T14:44:18.278Z,13.13
2019-03-15T14:46:45.022Z,13.08
2019-03-15T14:49:12.089Z,13.10
2019-03-15T14:51:39.637Z,13.13
2019-03-15T14:54:06.793Z,13.12
2019-03-15T14:56:33.897Z,13.09
2019-03-15T14:59:01.101Z,13.11
2019-03-15T15:01:28.206Z,13.07
2019-03-15T15:03:55.299Z,13.05
2019-03-15T15:06:22.587Z,13.00
2019-03-15T15:08:49.651Z,13.08
2019-03-15T15:11:16.860Z,13.02
2019-03-15T15:13:43.998Z,12.90
2019-03-15T15:16:11.041Z,12.89
2019-03-15T15:18:39.532Z,12.83
2019-03-15T15:21:06.737Z,12.66
2019-03-15T15:23:34.786Z,12.60
2019-03-15T15:26:02.171Z,12.54
2019-03-15T15:28:29.316Z,12.50
2019-03-15T15:30:56.430Z,12.42
2019-03-15T15:33:23.716Z,12.36
2019-03-15T15:35:50.802Z,12.28
2019-03-15T15:38:18.010Z,12.20
2019-03-15T15:40:45.173Z,12.16
2019-03-15T15:43:12.365Z,12.14
2019-03-15T15:45:39.573Z,12.11
2019-03-15T15:48:06.723Z,12.05
2019-03-15T15:50:33.902Z,12.05
2019-03-15T15:53:02.112Z,11.99
2019-03-15T15:55:32.253Z,11.89
2019-03-15T15:57:59.334Z,11.89
2019-03-15T16:00:26.500Z,11.83
2019-03-15T16:02:53.573Z,11.74
2019-03-15T16:05:20.690Z,11.76
2019-03-15T16:07:47.808Z,11.80
2019-03-15T16:10:17.975Z,11.79
2019-03-15T16:12:44.151Z,11.74
2019-03-15T16:15:11.389Z,11.78
2019-03-15T16:17:38.789Z,11.73
2019-03-15T16:20:06.750Z,11.72
2019-03-15T16:22:33.944Z,11.78
2019-03-15T16:25:01.028Z,11.77
2019-03-15T16:27:28.210Z,11.74
2019-03-15T16:29:55.298Z,11.73
2019-03-15T16:32:22.376Z,11.68
2019-03-15T16:34:49.454Z,11.72
2019-03-15T16:37:16.599Z,11.70
2019-03-15T16:39:43.660Z,11.64
2019-03-15T16:42:10.809Z,11.67
2019-03-15T16:44:37.968Z,11.68
2019-03-15T16:47:05.063Z,11.65
2019-03-15T16:49:32.496Z,11.67
2019-03-15T16:51:59.587Z,11.73
2019-03-15T16:54:26.769Z,11.71
2019-03-15T16:56:53.826Z,11.68
2019-03-15T16:59:20.928Z,11.69
2019-03-15T17:01:48.001Z,11.69
2019-03-15T17:04:15.047Z,11.64
2019-03-15T17:06:42.224Z,11.58
2019-03-15T17:09:09.371Z,11.61
2019-03-15T17:11:36.487Z,11.58
2019-03-15T17:14:03.811Z,11.57
2019-03-15T17:16:31.010Z,11.55
2019-03-15T17:18:58.062Z,11.54
2019-03-15T17:21:25.269Z,11.51
2019-03-15T17:23:52.979Z,11.51
2019-03-15T17:26:20.717Z,11.59
2019-03-15T17:28:57.855Z,11.57
2019-03-15T17:31:16.776Z,11.56
2019-03-15T17:33:43.852Z,11.52
2019-03-15T17:36:10.953Z,11.56
2019-03-15T17:38:37.995Z,11.52
2019-03-15T17:41:06.884Z,11.51
2019-03-15T17:43:34.011Z,11.54
2019-03-15T17:46:01.085Z,11.60
2019-03-15T17:48:28.195Z,11.60
2019-03-15T17:50:55.622Z,11.52
2019-03-15T17:53:22.858Z,11.51
2019-03-15T17:55:50.069Z,11.46
2019-03-15T17:58:17.233Z,11.42
2019-03-15T18:00:45.208Z,11.41
2019-03-15T18:03:20.899Z,11.38
2019-03-15T18:05:41.706Z,11.34
2019-03-15T18:08:08.780Z,11.30
2019-03-15T18:10:35.883Z,11.25
2019-03-15T18:13:03.478Z,11.21
2019-03-15T18:15:30.578Z,11.19
2019-03-15T18:18:00.016Z,11.18
2019-03-15T18:20:26.832Z,11.17
2019-03-15T18:22:54.069Z,11.10
2019-03-15T18:25:21.291Z,11.05
2019-03-15T18:27:48.810Z,11.01
2019-03-15T18:30:15.878Z,10.65
2019-03-15T18:32:42.995Z,10.20
2019-03-15T18:35:10.409Z,9.87
2019-03-15T18:37:37.497Z,9.68
2019-03-15T18:40:07.078Z,9.53
2019-03-15T18:42:34.211Z,9.39
2019-03-15T18:45:01.346Z,9.30
2019-03-15T18:47:28.458Z,9.24
2019-03-15T18:49:55.637Z,9.20
2019-03-15T18:52:23.803Z,9.14
2019-03-15T18:54:50.960Z,9.11
2019-03-15T18:57:18.028Z,9.12
2019-03-15T18:59:45.124Z,9.13
2019-03-15T19:02:12.350Z,9.13
2019-03-15T19:04:57.684Z,9.18
2019-03-15T19:07:24.847Z,9.24
2019-03-15T19:09:51.951Z,9.28
2019-03-15T19:12:19.034Z,9.24
2019-03-15T19:14:46.249Z,9.22
2019-03-15T19:17:13.331Z,9.24
2019-03-15T19:19:40.395Z,9.23
2019-03-15T19:22:07.506Z,9.21
2019-03-15T19:24:34.569Z,9.18
2019-03-15T19:27:07.575Z,9.22
2019-03-15T19:29:35.749Z,9.23
2019-03-15T19:32:02.846Z,9.22
2019-03-15T19:34:29.940Z,9.21
2019-03-15T19:36:57.208Z,9.24
2019-03-15T19:39:24.369Z,9.21
2019-03-15T19:41:51.625Z,9.21
2019-03-15T19:44:19.010Z,9.20
2019-03-15T19:46:46.136Z,9.19
2019-03-15T19:49:13.275Z,9.18
2019-03-15T19:51:44.741Z,9.18
2019-03-15T19:54:11.804Z,9.23
2019-03-15T19:56:38.899Z,9.22
2019-03-15T19:59:05.974Z,9.23
2019-03-15T20:01:33.243Z,9.20
2019-03-15T20:04:00.338Z,9.21
2019-03-15T20:06:27.413Z,9.23
2019-03-15T20:08:54.499Z,9.25
2019-03-15T20:11:21.592Z,9.26
2019-03-15T20:13:48.872Z,9.26
2019-03-15T20:16:15.931Z,9.23
2019-03-15T20:18:43.031Z,9.22
2019-03-15T20:21:10.110Z,9.25
2019-03-15T20:23:37.255Z,9.23
2019-03-15T20:26:04.292Z,9.19
2019-03-15T20:28:31.460Z,9.19
2019-03-15T20:30:58.545Z,9.18
2019-03-15T20:33:25.636Z,9.21
2019-03-15T20:35:52.747Z,9.17
2019-03-15T20:38:19.866Z,9.18
2019-03-15T20:40:46.938Z,9.20
2019-03-15T20:43:14.056Z,9.23
2019-03-15T20:45:41.173Z,9.22
2019-03-15T20:48:08.299Z,9.21
2019-03-15T20:50:46.080Z,9.20
2019-03-15T20:53:09.789Z,9.15
2019-03-15T20:55:33.418Z,9.09
2019-03-15T20:58:00.475Z,9.05
2019-03-15T21:00:35.654Z,9.01
2019-03-15T21:02:56.573Z,9.02
2019-03-15T21:05:23.655Z,9.04
2019-03-15T21:07:50.787Z,9.02
2019-03-15T21:10:17.860Z,9.02
2019-03-15T21:12:52.444Z,8.98
2019-03-15T21:15:19.528Z,8.99
2019-03-15T21:17:46.645Z,8.99
2019-03-15T21:20:16.734Z,8.99
2019-03-15T21:22:43.849Z,9.03
2019-03-15T21:25:10.903Z,9.03
2019-03-15T21:27:38.010Z,9.08
2019-03-15T21:30:06.738Z,9.07
2019-03-15T21:32:33.956Z,9.06
2019-03-15T21:35:01.086Z,9.05
2019-03-15T21:37:29.759Z,9.07
2019-03-15T21:39:56.965Z,9.05
2019-03-15T21:42:24.106Z,9.05
2019-03-15T21:44:52.737Z,9.07
2019-03-15T21:47:19.831Z,9.06
2019-03-15T21:49:46.929Z,9.05
2019-03-15T21:52:14.064Z,9.05
2019-03-15T21:54:41.134Z,9.03
2019-03-15T21:57:08.186Z,8.98
2019-03-15T21:59:38.964Z,8.96
2019-03-15T22:02:05.388Z,8.94
2019-03-15T22:04:32.445Z,8.94
2019-03-15T22:06:59.683Z,8.95
2019-03-15T22:09:26.753Z,8.93
2019-03-15T22:11:53.817Z,8.95
2019-03-15T22:14:20.927Z,9.04
2019-03-15T22:16:48.033Z,9.10
2019-03-15T22:19:15.264Z,9.11
2019-03-15T22:21:42.327Z,9.15
2019-03-15T22:24:09.450Z,9.22
2019-03-15T22:26:36.524Z,9.26
2019-03-15T22:29:03.746Z,9.27
2019-03-15T22:31:30.881Z,9.26
2019-03-15T22:33:57.956Z,9.29
2019-03-15T22:36:25.013Z,9.33
2019-03-15T22:38:52.109Z,9.35
2019-03-15T22:41:19.170Z,9.35
2019-03-15T22:43:47.282Z,9.34
2019-03-15T22:46:14.364Z,9.33
2019-03-15T22:48:41.469Z,9.36
2019-03-15T22:51:08.706Z,9.37
2019-03-15T22:53:35.796Z,9.37
2019-03-15T22:56:02.866Z,9.36
2019-03-15T22:58:30.001Z,9.39
2019-03-15T23:00:57.186Z,9.44
2019-03-15T23:03:24.259Z,9.47
2019-03-15T23:05:53.982Z,9.50
2019-03-15T23:08:21.091Z,9.53
2019-03-15T23:10:48.221Z,9.56
2019-03-15T23:13:15.305Z,9.59
2019-03-15T23:15:42.463Z,9.66
2019-03-15T23:18:09.550Z,9.67
2019-03-15T23:20:36.625Z,9.67
2019-03-15T23:23:03.703Z,9.68
2019-03-15T23:25:32.048Z,9.70
2019-03-15T23:27:59.177Z,9.71
2019-03-15T23:30:26.288Z,9.76
2019-03-15T23:32:54.587Z,9.78
2019-03-15T23:35:53.442Z,9.75
2019-03-15T23:38:08.813Z,9.77
2019-03-15T23:40:35.887Z,9.82
2019-03-15T23:43:03.002Z,9.85
2019-03-15T23:45:30.148Z,9.88
2019-03-15T23:47:57.808Z,9.85
2019-03-15T23:50:24.919Z,9.81
2019-03-15T23:52:51.970Z,9.80
2019-03-15T23:55:19.011Z,9.79
2019-03-15T23:57:46.134Z,9.80
